Nantucket, MA

6:47 PM EDT on September 03, 2015 (GMT -0400)
Brant Point | | Change Station
CLOSE
Current Station
Personal Weather Station
Location: Nantucket, MA
Elevation: 7 ft
Nearby Weather Stations

Elev 7 ft 41.29 °N, 70.10 °W | Updated 4 minutes ago

Clear
Clear
75.3 °F
Feels Like 75 °F
N
0.0
Wind Variable Wind from WNW
Gusts 0.0 mph

Today
High -- | Low -- °F
--% Chance of Precip.
Yesterday
High -- | Low -- °F
Precip. -- in
6:08 AM 7:10 PM
Waning Gibbous, 66% visible
Pressure 29.86 in
Visibility 8.0 miles
Clouds Clear
Heat Index 75 °F
Dew Point 72 °F
Humidity 89%
Rainfall Not available.
Snow Depth Not available.
UV 1 out of 12
Pollen 7.90 out of 12
Air Quality Not available.
Flu Activity Not available.
METAR KACK 032153Z 26005KT 8SM CLR 24/22 A2985 RMK AO2 SLP109 T02390222 $
Pressure 29.86 in
Visibility 8.0 miles
Clouds Clear
Heat Index 75 °F
Dew Point 72 °F
Humidity 89%
Rainfall Not available.
Snow Depth Not available.
UV 1 out of 12
Pollen 7.90 out of 12
Air Quality Not available.
Flu Activity Not available.
METAR KACK 032153Z 26005KT 8SM CLR 24/22 A2985 RMK AO2 SLP109 T02390222 $

10-Day Weather Forecast

×

Almanac

Astronomy

Sep. 03, 2015 Rise Set
Actual Time
Civil Twilight
Nautical Twilight
Astronomical Twilight
Moon
Length of Visible Light
Length of Day
Tomorrow will be .
, % of the Moon is Illuminated

Today's Extremes

State Highs State Lows

Community

WunderPhotos

Upload Photos

1,852,049 photos uploaded!

WunderBlogs® & News

Nearby

Air Quality

  Air Quality AQ Index Pollutant
Not available.

Snow Depth

Station Depth Elevation

Earthquake Activity

City Distance Mag. Time & Date
Minimum magnitude displayed is 2.5.

Coastal Water Temperatures

Place Temperature

Stations

Nearby Weather Stations

Station Location Temp. Windchill Dew Point Humidity Wind Precip. Elev Updated Type